createdAt,value
2019-04-06T00:00:55.431Z,2.60
2019-04-06T00:03:23.732Z,2.50
2019-04-06T00:05:51.973Z,2.60
2019-04-06T00:08:20.248Z,2.60
2019-04-06T00:10:48.500Z,2.60
2019-04-06T00:13:16.690Z,2.60
2019-04-06T00:15:44.946Z,2.50
2019-04-06T00:18:13.207Z,2.50
2019-04-06T00:20:41.390Z,2.50
2019-04-06T00:23:09.626Z,2.50
2019-04-06T00:25:44.205Z,2.50
2019-04-06T00:28:06.137Z,2.50
2019-04-06T00:30:34.377Z,2.50
2019-04-06T00:33:03.472Z,2.50
2019-04-06T00:35:31.722Z,2.50
2019-04-06T00:37:59.949Z,2.50
2019-04-06T00:40:28.192Z,2.50
2019-04-06T00:42:56.443Z,2.40
2019-04-06T00:45:24.719Z,2.30
2019-04-06T00:47:52.925Z,2.20
2019-04-06T00:50:21.128Z,2.20
2019-04-06T00:52:49.378Z,2.20
2019-04-06T00:55:17.628Z,2.20
2019-04-06T00:57:45.829Z,2.10
2019-04-06T01:00:14.028Z,2.10
2019-04-06T01:02:42.250Z,2.10
2019-04-06T01:05:10.512Z,2.10
2019-04-06T01:07:38.726Z,2.00
2019-04-06T01:10:07.095Z,1.90
2019-04-06T01:12:35.342Z,1.80
2019-04-06T01:15:03.581Z,1.70
2019-04-06T01:17:31.846Z,1.70
2019-04-06T01:20:00.138Z,1.70
2019-04-06T01:22:28.342Z,1.80
2019-04-06T01:24:56.681Z,1.90
2019-04-06T01:27:24.807Z,1.80
2019-04-06T01:29:53.034Z,1.80
2019-04-06T01:32:21.300Z,1.80
2019-04-06T01:34:49.653Z,1.90
2019-04-06T01:37:17.860Z,2.00
2019-04-06T01:39:46.010Z,2.10
2019-04-06T01:42:14.246Z,2.10
2019-04-06T01:44:42.453Z,2.10
2019-04-06T01:47:10.716Z,2.20
2019-04-06T01:49:38.972Z,2.20
2019-04-06T01:52:07.170Z,2.20
2019-04-06T01:54:35.534Z,2.30
2019-04-06T01:57:03.700Z,2.30
2019-04-06T01:59:31.887Z,2.20
2019-04-06T02:02:06.099Z,2.20
2019-04-06T02:04:34.301Z,2.20
2019-04-06T02:07:02.524Z,2.10
2019-04-06T02:09:30.773Z,2.00
2019-04-06T02:11:58.978Z,1.90
2019-04-06T02:14:27.330Z,1.90
2019-04-06T02:16:55.491Z,2.00
2019-04-06T02:19:23.696Z,2.00
2019-04-06T02:21:51.917Z,2.00
2019-04-06T02:24:20.138Z,2.10
2019-04-06T02:26:48.426Z,2.00
2019-04-06T02:29:16.822Z,2.00
2019-04-06T02:31:46.653Z,2.00
2019-04-06T02:34:20.548Z,1.90
2019-04-06T02:36:48.610Z,1.90
2019-04-06T02:39:20.713Z,1.70
2019-04-06T02:41:48.873Z,1.60
2019-04-06T02:44:17.180Z,1.50
2019-04-06T02:46:45.356Z,1.50
2019-04-06T02:49:13.691Z,1.40
2019-04-06T02:51:41.803Z,1.50
2019-04-06T02:54:10.074Z,1.40
2019-04-06T02:56:45.584Z,1.40
2019-04-06T02:59:06.614Z,1.30
2019-04-06T03:01:34.671Z,1.30
2019-04-06T03:04:02.950Z,1.30
2019-04-06T03:06:31.192Z,1.30
2019-04-06T03:08:59.425Z,1.30
2019-04-06T03:11:27.697Z,1.30
2019-04-06T03:13:55.957Z,1.20
2019-04-06T03:16:24.187Z,1.20
2019-04-06T03:18:52.454Z,1.20
2019-04-06T03:21:20.648Z,1.20
2019-04-06T03:23:51.249Z,1.10
2019-04-06T03:26:17.147Z,1.10
2019-04-06T03:28:45.369Z,1.10
2019-04-06T03:31:13.623Z,1.00
2019-04-06T03:33:41.872Z,0.90
2019-04-06T03:36:10.226Z,0.80
2019-04-06T03:38:38.360Z,0.70
2019-04-06T03:41:06.532Z,0.70
2019-04-06T03:43:34.788Z,0.60
2019-04-06T03:46:03.047Z,0.60
2019-04-06T03:48:31.285Z,0.70
2019-04-06T03:50:59.740Z,0.80
2019-04-06T03:53:27.948Z,0.80
2019-04-06T03:55:56.116Z,0.90
2019-04-06T03:58:24.328Z,0.90
2019-04-06T04:00:52.527Z,1.00
2019-04-06T04:03:20.812Z,1.00
2019-04-06T04:05:49.066Z,1.00
2019-04-06T04:08:17.417Z,1.00
2019-04-06T04:10:47.401Z,1.00
2019-04-06T04:13:13.785Z,1.00
2019-04-06T04:15:42.017Z,1.00
2019-04-06T04:18:10.421Z,0.90
2019-04-06T04:20:38.496Z,0.90
2019-04-06T04:23:06.776Z,0.80
2019-04-06T04:25:35.038Z,0.80
2019-04-06T04:28:03.282Z,0.70
2019-04-06T04:30:33.997Z,0.70
2019-04-06T04:32:59.831Z,0.70
2019-04-06T04:35:28.162Z,0.70
2019-04-06T04:37:56.276Z,0.60
2019-04-06T04:40:24.535Z,0.50
2019-04-06T04:42:52.686Z,0.50
2019-04-06T04:45:20.893Z,0.50
2019-04-06T04:47:50.318Z,0.50
2019-04-06T04:50:18.118Z,0.50
2019-04-06T04:52:46.355Z,0.60
2019-04-06T04:55:14.731Z,0.50
2019-04-06T04:57:45.063Z,0.50
2019-04-06T05:00:11.102Z,0.60
2019-04-06T05:02:39.365Z,0.60
2019-04-06T05:05:09.388Z,0.50
2019-04-06T05:07:35.832Z,0.40
2019-04-06T05:10:04.089Z,0.50
2019-04-06T05:12:32.275Z,0.40
2019-04-06T05:15:00.514Z,0.40
2019-04-06T05:17:28.764Z,0.40
2019-04-06T05:19:57.006Z,0.30
2019-04-06T05:22:25.204Z,0.30
2019-04-06T05:24:53.458Z,0.30
2019-04-06T05:27:21.698Z,0.30
2019-04-06T05:29:49.907Z,0.40
2019-04-06T05:32:18.316Z,0.40
2019-04-06T05:34:46.353Z,0.50
2019-04-06T05:37:14.600Z,0.50
2019-04-06T05:39:42.905Z,0.50
2019-04-06T05:42:11.091Z,0.60
2019-04-06T05:44:39.341Z,0.70
2019-04-06T05:47:07.721Z,0.80
2019-04-06T05:49:35.965Z,0.80
2019-04-06T05:52:04.182Z,0.90
2019-04-06T05:54:32.444Z,0.90
2019-04-06T05:57:00.681Z,1.00
2019-04-06T05:59:28.917Z,1.10
2019-04-06T06:01:57.149Z,1.20
2019-04-06T06:04:25.372Z,1.30
2019-04-06T06:06:53.618Z,1.40
2019-04-06T06:09:21.964Z,1.50
2019-04-06T06:11:49.999Z,1.50
2019-04-06T06:14:18.236Z,1.70
2019-04-06T06:16:46.751Z,1.70
2019-04-06T06:19:14.785Z,1.80
2019-04-06T06:21:43.137Z,1.90
2019-04-06T06:24:11.237Z,1.90
2019-04-06T06:26:39.479Z,2.00
2019-04-06T06:29:07.869Z,2.10
2019-04-06T06:31:35.922Z,2.30
2019-04-06T06:34:04.319Z,2.40
2019-04-06T06:36:32.371Z,2.50
2019-04-06T06:39:00.589Z,2.60
2019-04-06T06:41:28.810Z,2.80
2019-04-06T06:43:57.006Z,2.90
2019-04-06T06:46:25.262Z,3.00
2019-04-06T06:48:53.513Z,3.10
2019-04-06T06:51:21.752Z,3.20
2019-04-06T06:53:50.010Z,3.30
2019-04-06T06:56:18.232Z,3.50
2019-04-06T06:58:46.463Z,3.50
2019-04-06T07:01:14.692Z,3.70
2019-04-06T07:03:42.932Z,3.80
2019-04-06T07:06:11.184Z,3.90
2019-04-06T07:08:39.657Z,4.00
2019-04-06T07:11:07.737Z,4.10
2019-04-06T07:13:35.945Z,4.30
2019-04-06T07:16:04.520Z,4.40
2019-04-06T07:18:32.408Z,4.50
2019-04-06T07:21:00.652Z,4.60
2019-04-06T07:23:28.914Z,4.90
2019-04-06T07:25:58.913Z,5.10
2019-04-06T07:28:36.376Z,5.40
2019-04-06T07:30:53.544Z,5.90
2019-04-06T07:33:21.784Z,6.40
2019-04-06T07:35:50.075Z,6.90
2019-04-06T07:38:18.405Z,7.20
2019-04-06T07:40:46.704Z,7.50
2019-04-06T07:43:14.907Z,7.80
2019-04-06T07:45:43.154Z,8.10
2019-04-06T07:48:11.332Z,8.40
2019-04-06T07:50:39.551Z,8.70
2019-04-06T07:53:07.820Z,8.90
2019-04-06T07:55:36.283Z,9.00
2019-04-06T07:58:04.236Z,9.10
2019-04-06T08:00:32.680Z,9.20
2019-04-06T08:03:00.731Z,9.30
2019-04-06T08:05:28.992Z,9.40
2019-04-06T08:07:57.298Z,9.50
2019-04-06T08:10:25.773Z,9.50
2019-04-06T08:12:53.667Z,9.70
2019-04-06T08:15:21.990Z,9.80
2019-04-06T08:17:50.193Z,10.00
2019-04-06T08:20:18.422Z,10.30
2019-04-06T08:22:46.679Z,10.40
2019-04-06T08:25:14.916Z,10.60
2019-04-06T08:27:43.391Z,10.60
2019-04-06T08:30:11.464Z,10.80
2019-04-06T08:32:39.935Z,10.90
2019-04-06T08:35:07.990Z,11.10
2019-04-06T08:37:36.496Z,11.40
2019-04-06T08:40:04.460Z,11.50
2019-04-06T08:42:32.710Z,11.90
2019-04-06T08:45:01.110Z,12.10
2019-04-06T08:47:29.176Z,12.40
2019-04-06T08:49:57.381Z,12.80
2019-04-06T08:52:25.631Z,12.90
2019-04-06T08:54:53.904Z,13.00
2019-04-06T08:57:22.877Z,13.10
2019-04-06T08:59:50.435Z,13.00
2019-04-06T09:02:19.699Z,12.90
2019-04-06T09:04:47.945Z,12.90
2019-04-06T09:07:16.179Z,12.90
2019-04-06T09:09:44.376Z,12.60
2019-04-06T09:12:12.594Z,12.40
2019-04-06T09:14:40.869Z,12.20
2019-04-06T09:17:09.067Z,12.00
2019-04-06T09:19:37.321Z,12.00
2019-04-06T09:22:05.560Z,12.00
2019-04-06T09:24:33.808Z,12.00
2019-04-06T09:27:02.061Z,12.00
2019-04-06T09:29:30.339Z,12.00
2019-04-06T09:31:58.614Z,12.20
2019-04-06T09:34:26.775Z,12.30
2019-04-06T09:36:55.134Z,12.20
2019-04-06T09:39:23.188Z,12.20
2019-04-06T09:41:51.538Z,12.20
2019-04-06T09:44:19.698Z,12.20
2019-04-06T09:46:53.666Z,12.30
2019-04-06T09:49:23.734Z,12.40
2019-04-06T09:51:54.922Z,12.50
2019-04-06T09:54:24.078Z,12.60
2019-04-06T09:56:57.908Z,12.80
2019-04-06T09:59:35.924Z,13.00
2019-04-06T10:02:00.164Z,13.10
2019-04-06T10:04:30.012Z,13.20
2019-04-06T10:06:59.098Z,13.50
2019-04-06T10:09:27.343Z,13.70
2019-04-06T10:12:03.399Z,13.70
2019-04-06T10:14:31.290Z,13.80
2019-04-06T10:16:59.485Z,14.00
2019-04-06T10:19:32.699Z,14.30
2019-04-06T10:22:00.966Z,14.50
2019-04-06T10:24:34.824Z,15.00
2019-04-06T10:27:03.061Z,15.30
2019-04-06T10:29:47.367Z,15.50
2019-04-06T10:32:10.359Z,15.50
2019-04-06T10:34:40.939Z,16.20
2019-04-06T10:37:14.487Z,16.90
2019-04-06T10:39:48.230Z,17.40
2019-04-06T10:42:19.281Z,17.20
2019-04-06T10:44:52.954Z,17.30
2019-04-06T10:47:26.610Z,17.00
2019-04-06T10:49:54.903Z,17.00
2019-04-06T10:52:23.173Z,17.20
2019-04-06T10:54:52.393Z,17.30
2019-04-06T10:57:22.379Z,17.30
2019-04-06T11:00:00.977Z,17.30
2019-04-06T11:02:26.258Z,17.50
2019-04-06T11:04:55.389Z,17.40
2019-04-06T11:07:26.536Z,17.50
2019-04-06T11:09:55.612Z,17.20
2019-04-06T11:12:24.605Z,17.00
2019-04-06T11:14:57.860Z,17.00
2019-04-06T11:17:27.748Z,16.90
2019-04-06T11:20:01.884Z,17.00
2019-04-06T11:22:30.550Z,17.00
2019-04-06T11:25:02.692Z,17.10
2019-04-06T11:27:31.665Z,17.20
2019-04-06T11:30:12.417Z,17.00
2019-04-06T11:32:35.754Z,18.20
2019-04-06T11:35:05.728Z,18.50
2019-04-06T11:37:33.853Z,18.20
2019-04-06T11:40:06.051Z,18.60
2019-04-06T11:42:34.290Z,18.90
2019-04-06T11:45:03.473Z,19.40
2019-04-06T11:47:37.164Z,19.60
2019-04-06T11:50:06.142Z,19.80
2019-04-06T11:52:34.390Z,20.70
2019-04-06T11:55:02.650Z,21.00
2019-04-06T11:57:31.665Z,21.00
2019-04-06T12:00:00.833Z,20.90
2019-04-06T12:02:29.058Z,20.20
2019-04-06T12:04:57.523Z,19.80
2019-04-06T12:07:26.481Z,19.30
2019-04-06T12:09:54.867Z,19.20
2019-04-06T12:12:25.933Z,19.00
2019-04-06T12:14:55.217Z,18.90
2019-04-06T12:17:25.124Z,18.70
2019-04-06T12:19:55.243Z,18.30
2019-04-06T12:25:04.166Z,17.80
2019-04-06T12:27:38.421Z,18.10
2019-04-06T12:30:10.162Z,17.90
2019-04-06T12:32:40.292Z,17.80
2019-04-06T12:35:09.692Z,18.00
2019-04-06T12:37:42.442Z,17.90
2019-04-06T12:40:11.780Z,17.60
2019-04-06T12:42:42.886Z,17.20
2019-04-06T12:45:10.904Z,16.90
2019-04-06T12:47:44.946Z,16.80
2019-04-06T12:50:14.073Z,16.40
2019-04-06T12:52:43.512Z,16.10
2019-04-06T12:55:12.385Z,15.90
2019-04-06T12:57:43.478Z,15.90
2019-04-06T13:00:15.768Z,15.90
2019-04-06T13:02:49.515Z,15.90
2019-04-06T13:05:23.481Z,16.00
2019-04-06T13:07:57.518Z,15.90
2019-04-06T13:10:31.365Z,16.20
2019-04-06T13:13:04.446Z,16.40
2019-04-06T13:15:35.474Z,16.50
2019-04-06T13:18:06.629Z,16.60
2019-04-06T13:20:35.774Z,16.30
2019-04-06T13:23:05.129Z,16.20
2019-04-06T13:25:33.951Z,15.90
2019-04-06T13:28:02.167Z,15.70
2019-04-06T13:30:33.323Z,15.50
2019-04-06T13:33:01.571Z,15.70
2019-04-06T13:35:33.625Z,15.90
2019-04-06T13:38:02.765Z,16.30
2019-04-06T13:40:33.971Z,16.20
2019-04-06T13:43:02.201Z,16.20
2019-04-06T13:45:30.422Z,16.30
2019-04-06T13:47:58.640Z,16.60
2019-04-06T13:50:27.634Z,17.00
2019-04-06T13:53:00.899Z,17.60
2019-04-06T13:55:29.892Z,18.10
2019-04-06T13:58:02.116Z,18.50
2019-04-06T14:00:30.362Z,18.90
2019-04-06T14:02:59.509Z,19.00
2019-04-06T14:05:28.667Z,19.40
2019-04-06T14:08:02.470Z,19.60
2019-04-06T14:10:32.594Z,19.70
2019-04-06T14:13:04.612Z,20.40
2019-04-06T14:15:38.420Z,20.80
2019-04-06T14:18:07.819Z,21.30
2019-04-06T14:20:40.591Z,22.40
2019-04-06T14:23:10.730Z,22.80
2019-04-06T14:25:39.774Z,24.20
2019-04-06T14:28:09.862Z,25.20
2019-04-06T14:30:40.082Z,26.10
2019-04-06T14:33:13.723Z,26.70
2019-04-06T14:35:43.894Z,26.60
2019-04-06T14:38:15.009Z,26.10
2019-04-06T14:40:46.182Z,27.20
2019-04-06T14:43:14.515Z,26.00
2019-04-06T14:45:45.488Z,23.70
2019-04-06T14:48:13.729Z,22.10
2019-04-06T14:50:43.151Z,21.10
2019-04-06T14:53:11.885Z,20.70
2019-04-06T14:55:42.626Z,20.60
2019-04-06T14:58:10.260Z,22.50
2019-04-06T15:00:38.724Z,24.50
2019-04-06T15:03:06.888Z,25.50
2019-04-06T15:05:40.840Z,26.80
2019-04-06T15:08:14.059Z,27.70
2019-04-06T15:10:47.779Z,27.90
2019-04-06T15:13:16.015Z,27.80
2019-04-06T15:15:50.072Z,28.00
2019-04-06T15:18:23.908Z,28.00
2019-04-06T15:20:57.937Z,27.50
2019-04-06T15:23:26.157Z,26.40
2019-04-06T15:26:00.454Z,26.80
2019-04-06T15:28:28.786Z,27.60
2019-04-06T15:31:02.164Z,27.30
2019-04-06T15:33:33.248Z,27.30
2019-04-06T15:36:03.287Z,27.50
2019-04-06T15:38:32.506Z,27.60
2019-04-06T15:41:02.856Z,27.10
2019-04-06T15:43:32.789Z,26.20
2019-04-06T15:46:05.543Z,25.00
2019-04-06T15:48:38.410Z,23.80
2019-04-06T15:51:04.035Z,23.70
2019-04-06T15:53:33.032Z,24.30
2019-04-06T15:56:02.987Z,24.40
2019-04-06T15:58:36.685Z,24.30
2019-04-06T16:01:10.389Z,24.70
2019-04-06T16:03:39.437Z,24.90
2019-04-06T16:06:09.431Z,24.60
2019-04-06T16:08:38.438Z,24.00
2019-04-06T16:11:06.658Z,23.60
2019-04-06T16:13:39.091Z,23.40
2019-04-06T16:16:08.238Z,23.00
2019-04-06T16:18:40.089Z,22.40
2019-04-06T16:21:13.155Z,22.00
2019-04-06T16:23:43.892Z,21.60
2019-04-06T16:26:10.356Z,21.10
2019-04-06T16:28:38.777Z,20.60
2019-04-06T16:31:08.044Z,20.10
2019-04-06T16:33:36.775Z,19.60
2019-04-06T16:36:09.122Z,19.30
2019-04-06T16:38:35.291Z,19.00
2019-04-06T16:41:04.400Z,18.90
2019-04-06T16:43:32.653Z,18.90
2019-04-06T16:46:01.172Z,18.70
2019-04-06T16:48:32.155Z,18.40
2019-04-06T16:51:00.275Z,18.10
2019-04-06T16:53:30.007Z,17.60
2019-04-06T16:55:59.071Z,17.20
2019-04-06T16:58:32.891Z,16.80
2019-04-06T17:01:02.742Z,16.50
2019-04-06T17:03:32.923Z,16.20
2019-04-06T17:06:06.221Z,15.90
2019-04-06T17:08:34.373Z,15.50
2019-04-06T17:11:02.512Z,15.20
2019-04-06T17:13:32.668Z,14.90
2019-04-06T17:16:05.613Z,14.60
2019-04-06T17:18:33.000Z,14.20
2019-04-06T17:21:03.440Z,13.90
2019-04-06T17:23:31.427Z,13.70
2019-04-06T17:26:05.439Z,13.50
2019-04-06T17:28:35.462Z,13.30
2019-04-06T17:31:03.672Z,13.20
2019-04-06T17:33:33.758Z,12.90
2019-04-06T17:36:05.847Z,12.80
2019-04-06T17:38:34.956Z,12.60
2019-04-06T17:41:04.199Z,12.30
2019-04-06T17:43:35.400Z,12.20
2019-04-06T17:46:06.438Z,12.10
2019-04-06T17:48:40.287Z,11.90
2019-04-06T17:51:11.318Z,11.90
2019-04-06T17:53:45.166Z,11.80
2019-04-06T17:56:15.173Z,11.60
2019-04-06T17:58:45.348Z,11.50
2019-04-06T18:01:13.589Z,11.40
2019-04-06T18:03:44.770Z,11.30
2019-04-06T18:06:15.227Z,11.30
2019-04-06T18:08:47.330Z,11.30
2019-04-06T18:11:19.532Z,11.20
2019-04-06T18:13:49.130Z,11.10
2019-04-06T18:16:17.429Z,10.90
2019-04-06T18:18:45.698Z,10.70
2019-04-06T18:21:14.210Z,10.60
2019-04-06T18:23:42.100Z,10.50
2019-04-06T18:26:10.392Z,10.30
2019-04-06T18:28:38.610Z,10.20
2019-04-06T18:31:06.857Z,10.10
2019-04-06T18:33:35.086Z,10.10
2019-04-06T18:36:03.350Z,10.00
2019-04-06T18:38:32.452Z,9.90
2019-04-06T18:41:00.697Z,9.90
2019-04-06T18:43:29.399Z,9.80
2019-04-06T18:45:57.555Z,9.80
2019-04-06T18:48:25.750Z,9.70
2019-04-06T18:50:53.565Z,9.70
2019-04-06T18:53:22.045Z,9.60
2019-04-06T18:55:50.056Z,9.50
2019-04-06T18:58:18.692Z,9.40
2019-04-06T19:00:46.484Z,9.40
2019-04-06T19:03:16.334Z,9.30
2019-04-06T19:05:43.439Z,9.20
2019-04-06T19:08:11.173Z,9.20
2019-04-06T19:10:39.413Z,9.20
2019-04-06T19:13:07.557Z,9.20
2019-04-06T19:15:35.795Z,9.10
2019-04-06T19:18:04.257Z,9.10
2019-04-06T19:20:32.286Z,9.00
2019-04-06T19:23:00.468Z,9.00
2019-04-06T19:25:28.744Z,9.00
2019-04-06T19:27:56.979Z,9.00
2019-04-06T19:30:25.228Z,9.00
2019-04-06T19:32:54.000Z,9.00
2019-04-06T19:35:21.721Z,9.10
2019-04-06T19:37:49.978Z,9.20
2019-04-06T19:40:18.188Z,9.30
2019-04-06T19:42:46.391Z,9.30
2019-04-06T19:45:14.771Z,9.30
2019-04-06T19:47:43.615Z,9.30
2019-04-06T19:50:11.726Z,9.30
2019-04-06T19:52:39.612Z,9.30
2019-04-06T19:55:07.827Z,9.30
2019-04-06T19:57:36.174Z,9.30
2019-04-06T20:00:05.683Z,9.30
2019-04-06T20:02:33.453Z,9.40
2019-04-06T20:05:01.801Z,9.40
2019-04-06T20:07:29.784Z,9.40
2019-04-06T20:09:58.023Z,9.50
2019-04-06T20:12:26.410Z,9.50
2019-04-06T20:14:54.623Z,9.40
2019-04-06T20:17:22.732Z,9.40
2019-04-06T20:19:50.932Z,9.40
2019-04-06T20:22:19.196Z,9.50
2019-04-06T20:24:47.416Z,9.60
2019-04-06T20:27:15.595Z,9.80
2019-04-06T20:29:44.271Z,9.80
2019-04-06T20:32:12.144Z,10.00
2019-04-06T20:34:40.269Z,10.00
2019-04-06T20:37:08.493Z,10.10
2019-04-06T20:39:36.989Z,10.30
2019-04-06T20:42:05.248Z,10.30
2019-04-06T20:44:33.259Z,10.40
2019-04-06T20:47:01.638Z,10.40
2019-04-06T20:49:29.741Z,10.40
2019-04-06T20:51:59.040Z,10.40
2019-04-06T20:54:26.230Z,10.40
2019-04-06T20:56:58.047Z,10.40
2019-04-06T20:59:22.927Z,10.40
2019-04-06T21:01:50.932Z,10.40
2019-04-06T21:04:19.180Z,10.40
2019-04-06T21:06:47.399Z,10.40
2019-04-06T21:09:15.713Z,10.50
2019-04-06T21:11:43.894Z,10.50
2019-04-06T21:14:12.312Z,10.50
2019-04-06T21:16:40.678Z,10.50
2019-04-06T21:19:09.219Z,10.50
2019-04-06T21:21:37.141Z,10.50
2019-04-06T21:24:05.401Z,10.50
2019-04-06T21:26:33.647Z,10.60
2019-04-06T21:29:01.886Z,10.60
2019-04-06T21:31:30.658Z,10.70
2019-04-06T21:34:09.342Z,10.60
2019-04-06T21:36:26.642Z,10.70
2019-04-06T21:38:54.955Z,10.70
2019-04-06T21:41:23.153Z,10.70
2019-04-06T21:43:51.361Z,10.70
2019-04-06T21:46:19.615Z,10.70
2019-04-06T21:48:48.040Z,10.70
2019-04-06T21:51:16.490Z,10.70
2019-04-06T21:53:44.473Z,10.60
2019-04-06T21:56:12.455Z,10.50
2019-04-06T21:58:40.699Z,10.50
2019-04-06T22:01:08.986Z,10.40
2019-04-06T22:03:37.179Z,10.40
2019-04-06T22:06:05.738Z,10.50
2019-04-06T22:08:33.622Z,10.50
2019-04-06T22:11:01.842Z,10.50
2019-04-06T22:13:30.047Z,10.50
2019-04-06T22:15:58.290Z,10.50
2019-04-06T22:18:26.518Z,10.50
2019-04-06T22:20:54.766Z,10.50
2019-04-06T22:23:23.022Z,10.50
2019-04-06T22:25:51.412Z,10.50
2019-04-06T22:28:19.459Z,10.30
2019-04-06T22:30:47.694Z,10.30
2019-04-06T22:33:15.942Z,10.20
2019-04-06T22:35:44.211Z,10.00
2019-04-06T22:38:12.405Z,9.90
2019-04-06T22:40:40.671Z,9.80
2019-04-06T22:43:08.864Z,9.70
2019-04-06T22:45:37.076Z,9.50
2019-04-06T22:48:05.336Z,9.50
2019-04-06T22:50:33.785Z,9.60
2019-04-06T22:53:01.801Z,9.50
2019-04-06T22:55:30.011Z,9.50
2019-04-06T22:57:58.209Z,9.40
2019-04-06T23:00:27.219Z,9.40
2019-04-06T23:02:58.875Z,9.40
2019-04-06T23:05:26.866Z,9.40
2019-04-06T23:07:55.142Z,9.40
2019-04-06T23:10:23.788Z,9.40
2019-04-06T23:12:51.381Z,9.40
2019-04-06T23:15:19.619Z,9.50
2019-04-06T23:17:48.772Z,9.50
2019-04-06T23:20:17.445Z,9.40
2019-04-06T23:22:45.529Z,9.30
2019-04-06T23:25:13.457Z,9.20
2019-04-06T23:27:42.068Z,9.20
2019-04-06T23:30:10.485Z,9.40
2019-04-06T23:32:38.200Z,9.40
2019-04-06T23:35:06.980Z,9.30
2019-04-06T23:37:34.729Z,9.20
2019-04-06T23:40:02.951Z,9.10
2019-04-06T23:42:31.159Z,8.90
2019-04-06T23:44:59.392Z,8.70
2019-04-06T23:47:27.598Z,8.50
2019-04-06T23:49:56.273Z,8.40
2019-04-06T23:52:24.100Z,8.30
2019-04-06T23:54:52.306Z,8.30
2019-04-06T23:57:20.926Z,8.30
2019-04-06T23:59:48.923Z,8.40
